Time;durP1;ratioP1;P1;durP2;ratioP2;P2;SDS_P1;SDS_P2;PMS_P1;PMS_P2;Temp;Humidity;BMP_temperature;BMP_pressure;BME280_temperature;BME280_humidity;BME280_pressure;Samples;Min_cycle;Max_cycle;Signal;HPM_P1;HPM_P2
2022/05/16 00:08:01;;;;;;;0.20;0.10;;;18.20;99.90;;;;;;26427935;22;20166;-78
2022/05/16 00:18:06;;;;;;;0.20;0.10;;;18.40;99.90;;;;;;26427585;22;20186;-77
2022/05/16 00:28:10;;;;;;;0.20;0.10;;;18.20;99.90;;;;;;26427738;22;20177;-77
2022/05/16 00:38:16;;;;;;;0.20;0.10;;;18.30;99.90;;;;;;26429103;22;20176;-77
2022/05/16 00:48:20;;;;;;;0.20;0.10;;;18.40;99.90;;;;;;26403757;22;20283;-77
2022/05/16 00:58:26;;;;;;;0.20;0.10;;;18.20;99.90;;;;;;26434952;22;20197;-79
2022/05/16 01:08:33;;;;;;;0.20;0.10;;;18.10;99.90;;;;;;26406759;22;20177;-77
2022/05/16 01:18:39;;;;;;;0.20;0.10;;;18.00;99.90;;;;;;26407353;22;20261;-76
2022/05/16 01:28:44;;;;;;;0.20;0.07;;;17.90;99.90;;;;;;26433871;22;20162;-76
2022/05/16 01:38:48;;;;;;;0.20;0.00;;;17.80;99.90;;;;;;26435108;22;20181;-77
2022/05/16 01:48:54;;;;;;;0.20;0.10;;;18.10;99.90;;;;;;26435716;22;20162;-77
2022/05/16 01:58:58;;;;;;;0.20;0.10;;;18.00;99.90;;;;;;26434291;22;20190;-76
2022/05/16 02:09:04;;;;;;;0.20;0.07;;;18.20;99.90;;;;;;26435537;22;20180;-76
2022/05/16 02:19:07;;;;;;;0.20;0.10;;;18.30;99.90;;;;;;26415925;22;20205;-74
2022/05/16 02:29:14;;;;;;;0.20;0.10;;;18.60;99.90;;;;;;26300957;22;20163;-76
2022/05/16 02:39:18;;;;;;;0.20;0.10;;;18.70;99.90;;;;;;26303218;22;20188;-78
2022/05/16 02:49:23;;;;;;;0.20;0.00;;;18.70;99.90;;;;;;26301773;22;20248;-75
2022/05/16 02:59:32;;;;;;;0.20;0.10;;;18.80;99.90;;;;;;26273491;22;20197;-76
2022/05/16 03:09:37;;;;;;;0.20;0.10;;;18.60;99.90;;;;;;26272281;22;20217;-76
2022/05/16 03:19:42;;;;;;;0.20;0.00;;;18.50;99.90;;;;;;26302481;22;20191;-78
2022/05/16 03:29:49;;;;;;;0.20;0.10;;;18.40;99.90;;;;;;26299779;22;20170;-75
2022/05/16 03:50:21;;;;;;;0.20;0.10;;;18.10;99.90;;;;;;26233266;22;20167;-78
2022/05/16 04:00:25;;;;;;;0.20;0.10;;;17.50;99.90;;;;;;26299006;22;21103;-79
2022/05/16 04:10:30;;;;;;;0.20;0.10;;;17.50;99.90;;;;;;26299663;22;20170;-74
2022/05/16 04:20:34;;;;;;;0.20;0.10;;;17.70;99.90;;;;;;26335758;22;20895;-77
2022/05/16 04:30:40;;;;;;;0.20;0.10;;;17.70;99.90;;;;;;26561117;22;20177;-78
2022/05/16 04:51:03;;;;;;;0.20;0.10;;;18.80;99.90;;;;;;26565548;22;20169;-78
2022/05/16 05:01:08;;;;;;;0.20;0.10;;;18.80;99.90;;;;;;26512554;22;20272;-77
2022/05/16 05:21:43;;;;;;;0.20;0.00;;;19.00;99.90;;;;;;26501423;22;20226;-77
2022/05/16 05:31:49;;;;;;;0.20;0.00;;;19.20;99.90;;;;;;26542392;22;20176;-80
2022/05/16 05:41:53;;;;;;;0.20;0.00;;;19.20;99.90;;;;;;26536735;22;20307;-79
2022/05/16 05:51:59;;;;;;;0.20;0.10;;;19.40;99.90;;;;;;26564286;22;20186;-79
2022/05/16 06:02:03;;;;;;;0.83;0.83;;;19.80;99.90;;;;;;26561693;22;20192;-76
2022/05/16 06:12:12;;;;;;;0.20;0.10;;;20.30;99.90;;;;;;26527789;22;20169;-80
2022/05/16 06:22:17;;;;;;;0.20;0.03;;;20.70;99.90;;;;;;26506185;22;20301;-80
2022/05/16 06:32:22;;;;;;;0.20;0.00;;;21.10;99.90;;;;;;26560749;22;20340;-80
2022/05/16 06:42:26;;;;;;;0.20;0.10;;;21.30;99.90;;;;;;26532427;22;20234;-77
2022/05/16 06:52:31;;;;;;;0.20;0.10;;;21.50;99.90;;;;;;26530557;22;20250;-78
2022/05/16 07:02:35;;;;;;;0.20;0.00;;;21.70;99.90;;;;;;26529840;22;20185;-79
2022/05/16 07:12:41;;;;;;;0.20;0.10;;;21.70;99.90;;;;;;26557152;22;20157;-73
2022/05/16 07:22:46;;;;;;;0.20;0.00;;;21.60;99.90;;;;;;26531427;22;20199;-74
2022/05/16 07:32:53;;;;;;;0.20;0.10;;;21.40;99.90;;;;;;26558285;22;20156;-77
2022/05/16 07:42:57;;;;;;;0.20;0.10;;;21.10;99.90;;;;;;26557208;22;20195;-72
2022/05/16 07:53:04;;;;;;;0.20;0.00;;;21.60;99.90;;;;;;26561426;22;20208;-80
2022/05/16 08:03:11;;;;;;;0.20;0.00;;;21.70;99.90;;;;;;26559589;22;20252;-78
2022/05/16 08:13:19;;;;;;;0.20;0.00;;;21.80;99.90;;;;;;26532269;22;20173;-79
2022/05/16 08:23:26;;;;;;;0.20;0.00;;;22.10;99.90;;;;;;26559427;22;20212;-77
2022/05/16 08:33:34;;;;;;;0.20;0.00;;;22.70;99.90;;;;;;26530686;22;20164;-80
2022/05/16 08:43:48;;;;;;;0.20;0.00;;;22.70;99.90;;;;;;26547949;22;20181;-82
2022/05/16 08:54:10;;;;;;;0.20;0.00;;;22.60;99.90;;;;;;26546706;22;20185;-82
2022/05/16 09:04:19;;;;;;;0.20;0.00;;;22.40;99.90;;;;;;26523138;22;20612;-76
2022/05/16 09:14:38;;;;;;;0.20;0.00;;;22.30;99.90;;;;;;26546267;22;20177;-78
2022/05/16 09:24:49;;;;;;;0.20;0.10;;;22.50;99.90;;;;;;26520031;22;20204;-81
2022/05/16 09:34:54;;;;;;;0.20;0.10;;;22.60;99.90;;;;;;26552629;22;20165;-79
2022/05/16 09:45:01;;;;;;;0.20;0.00;;;22.90;99.90;;;;;;26554589;22;20165;-82
2022/05/16 09:55:10;;;;;;;0.20;0.10;;;22.90;99.90;;;;;;26556735;22;20197;-80
2022/05/16 10:05:25;;;;;;;0.20;0.00;;;23.10;99.90;;;;;;26503509;22;20162;-86
2022/05/16 10:15:31;;;;;;;0.20;0.20;;;23.20;99.90;;;;;;26507598;22;20193;-84
2022/05/16 10:25:40;;;;;;;7.20;1.30;;;23.40;99.90;;;;;;26530570;22;20190;-87
2022/05/16 10:35:50;;;;;;;0.20;0.00;;;23.10;99.90;;;;;;26529259;22;20303;-77
2022/05/16 10:46:01;;;;;;;0.20;0.07;;;23.80;99.90;;;;;;26526486;22;20259;-79
2022/05/16 10:56:18;;;;;;;0.20;0.00;;;23.80;99.90;;;;;;26525159;22;20192;-84
2022/05/16 11:06:45;;;;;;;0.20;0.10;;;24.80;99.90;;;;;;26529251;22;20172;-82
2022/05/16 11:16:54;;;;;;;0.20;0.00;;;24.30;99.90;;;;;;26551634;22;20201;-81
2022/05/16 11:27:09;;;;;;;0.20;0.00;;;24.90;99.90;;;;;;26526130;22;20185;-73
2022/05/16 11:37:29;;;;;;;0.63;0.63;;;25.80;99.90;;;;;;26551657;22;20181;-86
2022/05/16 11:47:39;;;;;;;0.20;0.20;;;26.20;99.90;;;;;;26551864;22;20141;-83
2022/05/16 12:08:45;;;;;;;0.20;0.10;;;26.40;99.90;;;;;;26520947;22;20165;-81
2022/05/16 12:19:09;;;;;;;0.20;0.00;;;26.30;99.90;;;;;;26547126;22;20201;-81
2022/05/16 12:29:21;;;;;;;0.20;0.00;;;27.80;99.90;;;;;;26545151;22;20221;-85
2022/05/16 12:39:29;;;;;;;0.55;0.43;;;28.30;99.90;;;;;;26543405;22;20662;-78
2022/05/16 12:49:50;;;;;;;0.20;0.00;;;28.80;99.90;;;;;;26517985;22;20161;-79
2022/05/16 13:00:03;;;;;;;0.20;0.00;;;28.80;99.90;;;;;;26546011;22;20181;-80
2022/05/16 13:10:12;;;;;;;0.20;0.08;;;29.70;99.90;;;;;;26527005;22;20149;-83
2022/05/16 13:20:20;;;;;;;0.20;0.00;;;29.30;99.90;;;;;;26528987;22;20197;-84
2022/05/16 13:30:28;;;;;;;0.20;0.10;;;29.40;99.90;;;;;;26531299;22;20161;-81
2022/05/16 13:40:38;;;;;;;0.73;0.73;;;29.50;99.90;;;;;;26554088;22;20181;-82
2022/05/16 13:50:43;;;;;;;0.20;0.00;;;29.70;99.90;;;;;;26528893;22;20172;-82
2022/05/16 14:00:52;;;;;;;0.20;0.00;;;29.70;99.90;;;;;;26525969;22;20173;-82
2022/05/16 14:10:57;;;;;;;0.20;0.10;;;29.70;99.90;;;;;;26554109;22;20161;-76
2022/05/16 14:21:16;;;;;;;0.20;0.00;;;30.30;99.90;;;;;;26553984;22;20197;-81
2022/05/16 14:31:27;;;;;;;1.10;1.00;;;30.80;99.90;;;;;;26556059;22;20161;-80
2022/05/16 14:41:32;;;;;;;0.20;0.00;;;29.90;99.90;;;;;;26553305;22;20206;-74
2022/05/16 14:51:38;;;;;;;0.20;0.00;;;30.30;99.90;;;;;;26553166;22;20186;-81
2022/05/16 15:12:08;;;;;;;0.20;0.10;;;26.10;99.90;;;;;;26554439;22;20218;-77
2022/05/16 15:22:17;;;;;;;2.25;2.15;;;26.90;99.90;;;;;;26552289;22;20272;-78
2022/05/16 15:32:21;;;;;;;0.20;0.00;;;26.70;99.90;;;;;;26550725;22;20885;-85
2022/05/16 15:42:28;;;;;;;0.20;0.00;;;26.30;99.90;;;;;;26520348;22;20197;-78
2022/05/16 15:52:32;;;;;;;0.20;0.10;;;24.80;99.90;;;;;;26492305;22;20242;-86
2022/05/16 16:02:41;;;;;;;0.82;0.40;;;25.50;99.90;;;;;;26520614;22;20177;-81
2022/05/16 16:12:45;;;;;;;0.20;0.00;;;25.70;99.90;;;;;;26549015;22;20221;-76
2022/05/16 16:22:52;;;;;;;0.20;0.00;;;24.50;99.90;;;;;;26544165;22;20261;-78
2022/05/16 16:32:56;;;;;;;0.20;0.10;;;23.60;99.90;;;;;;26518936;22;20172;-81
2022/05/16 16:43:02;;;;;;;0.20;0.00;;;23.50;99.90;;;;;;26554697;22;20206;-84
2022/05/16 17:03:29;;;;;;;0.20;0.10;;;23.70;99.90;;;;;;26535082;22;20181;-82
2022/05/16 17:13:36;;;;;;;0.20;0.00;;;24.80;99.90;;;;;;26555765;22;20165;-84
2022/05/16 17:23:49;;;;;;;0.20;0.00;;;24.80;99.90;;;;;;26559744;22;20193;-79
2022/05/16 17:33:52;;;;;;;0.20;0.10;;;23.00;99.90;;;;;;26566302;22;20154;-77
2022/05/16 17:43:58;;;;;;;0.20;0.00;;;21.90;99.90;;;;;;26568473;22;20364;-80
2022/05/16 17:54:06;;;;;;;0.20;0.00;;;21.70;99.90;;;;;;26537349;22;20188;-73
2022/05/16 18:04:13;;;;;;;0.20;0.00;;;21.70;99.90;;;;;;26558052;22;20188;-77
2022/05/16 18:14:18;;;;;;;0.20;0.00;;;21.70;99.90;;;;;;26559739;22;20179;-80
2022/05/16 18:24:23;;;;;;;0.20;0.20;;;21.60;99.90;;;;;;26558799;22;20190;-81
2022/05/16 18:34:27;;;;;;;0.20;0.00;;;21.40;99.90;;;;;;26559058;22;20235;-75
2022/05/16 18:54:55;;;;;;;0.20;0.00;;;21.40;99.90;;;;;;26533210;22;20177;-77
2022/05/16 19:05:00;;;;;;;0.20;0.00;;;21.50;99.90;;;;;;26557103;22;20196;-77
2022/05/16 19:15:06;;;;;;;0.20;0.00;;;21.10;99.90;;;;;;26530354;22;20206;-77
2022/05/16 19:25:13;;;;;;;0.20;0.20;;;20.90;99.90;;;;;;26558679;22;20299;-77
2022/05/16 19:35:23;;;;;;;0.20;0.00;;;21.00;99.90;;;;;;26532657;22;20183;-78
2022/05/16 19:45:28;;;;;;;0.20;0.00;;;20.90;99.90;;;;;;26557899;22;20238;-79
2022/05/16 19:55:32;;;;;;;0.20;0.10;;;20.80;99.90;;;;;;26558460;22;20181;-78
2022/05/16 20:05:38;;;;;;;0.20;0.00;;;20.80;99.90;;;;;;26531787;22;20671;-78
2022/05/16 20:15:42;;;;;;;0.20;0.00;;;20.80;99.90;;;;;;26557259;22;20169;-78
2022/05/16 20:25:47;;;;;;;0.20;0.00;;;20.60;99.90;;;;;;26559197;22;20196;-78
2022/05/16 20:35:53;;;;;;;0.20;0.00;;;20.50;99.90;;;;;;26526964;22;20173;-79
2022/05/16 20:45:58;;;;;;;0.20;0.00;;;20.50;99.90;;;;;;26556179;22;20181;-79
2022/05/16 20:56:02;;;;;;;0.20;0.10;;;20.60;99.90;;;;;;26526763;22;20230;-78
2022/05/16 21:06:29;;;;;;;0.20;0.03;;;20.70;99.90;;;;;;26494770;22;20173;-77
2022/05/16 21:16:32;;;;;;;0.20;0.10;;;20.30;99.90;;;;;;26529895;22;20153;-78
2022/05/16 21:26:38;;;;;;;0.20;0.10;;;20.20;99.90;;;;;;26558005;22;20192;-77
2022/05/16 21:36:41;;;;;;;0.20;0.10;;;20.00;99.90;;;;;;26567931;22;20150;-79
2022/05/16 21:46:49;;;;;;;0.20;0.10;;;19.90;99.90;;;;;;26568273;22;20161;-77
2022/05/16 21:56:57;;;;;;;0.20;0.00;;;19.70;99.90;;;;;;26540171;22;20174;-80
2022/05/16 22:07:03;;;;;;;0.20;0.10;;;19.60;99.90;;;;;;26538770;22;20161;-80
2022/05/16 22:17:06;;;;;;;0.20;0.00;;;19.60;99.90;;;;;;26570768;22;20259;-82
2022/05/16 22:27:16;;;;;;;0.20;0.10;;;19.10;99.90;;;;;;26573251;22;20197;-81
2022/05/16 22:37:20;;;;;;;0.20;0.00;;;18.90;99.90;;;;;;26570655;22;20195;-82
2022/05/16 22:47:26;;;;;;;0.20;0.07;;;18.60;99.90;;;;;;26572183;22;20217;-81
2022/05/16 22:57:30;;;;;;;0.20;0.10;;;18.60;99.90;;;;;;26543919;22;20193;-80
2022/05/16 23:07:38;;;;;;;0.20;0.10;;;18.40;99.90;;;;;;26539062;22;20172;-80
2022/05/16 23:17:44;;;;;;;0.20;0.00;;;18.20;99.90;;;;;;26538502;22;20265;-81
2022/05/16 23:27:50;;;;;;;0.20;0.10;;;18.40;99.90;;;;;;26538659;22;20193;-79
2022/05/16 23:37:55;;;;;;;0.20;0.10;;;18.50;99.90;;;;;;26534762;22;20192;-80
2022/05/16 23:48:02;;;;;;;0.20;0.00;;;18.20;99.90;;;;;;26536190;22;20231;-80
2022/05/16 23:58:06;;;;;;;0.20;0.00;;;18.10;99.90;;;;;;26563065;22;20185;-77
